sensor_id;sensor_type;location;lat;lon;timestamp;P1;durP1;ratioP1;P2;durP2;ratioP2
53036;SDS011;38924;52.134;4.666;2023-05-17T00:02:22;27.63;;;10.80;;
53036;SDS011;38924;52.134;4.666;2023-05-17T00:04:48;24.85;;;9.25;;
53036;SDS011;38924;52.134;4.666;2023-05-17T00:07:13;17.65;;;10.32;;
53036;SDS011;38924;52.134;4.666;2023-05-17T00:09:40;28.08;;;11.38;;
53036;SDS011;38924;52.134;4.666;2023-05-17T00:12:06;26.08;;;10.50;;
53036;SDS011;38924;52.134;4.666;2023-05-17T00:14:31;29.73;;;11.55;;
53036;SDS011;38924;52.134;4.666;2023-05-17T00:16:57;27.67;;;11.07;;
53036;SDS011;38924;52.134;4.666;2023-05-17T00:19:22;29.15;;;11.23;;
53036;SDS011;38924;52.134;4.666;2023-05-17T00:21:48;26.08;;;12.15;;
53036;SDS011;38924;52.134;4.666;2023-05-17T00:24:14;21.60;;;12.90;;
53036;SDS011;38924;52.134;4.666;2023-05-17T00:26:40;31.08;;;10.05;;
53036;SDS011;38924;52.134;4.666;2023-05-17T00:29:05;49.83;;;11.95;;
53036;SDS011;38924;52.134;4.666;2023-05-17T00:31:34;42.88;;;13.38;;
53036;SDS011;38924;52.134;4.666;2023-05-17T00:33:59;22.33;;;10.10;;
53036;SDS011;38924;52.134;4.666;2023-05-17T00:36:25;29.15;;;11.15;;
53036;SDS011;38924;52.134;4.666;2023-05-17T00:38:51;26.42;;;12.63;;
53036;SDS011;38924;52.134;4.666;2023-05-17T00:41:16;35.35;;;12.18;;
53036;SDS011;38924;52.134;4.666;2023-05-17T00:43:42;24.70;;;10.65;;
53036;SDS011;38924;52.134;4.666;2023-05-17T00:46:08;37.22;;;10.30;;
53036;SDS011;38924;52.134;4.666;2023-05-17T00:48:34;26.30;;;9.98;;
53036;SDS011;38924;52.134;4.666;2023-05-17T00:51:00;25.05;;;10.45;;
53036;SDS011;38924;52.134;4.666;2023-05-17T00:53:26;20.02;;;9.38;;
53036;SDS011;38924;52.134;4.666;2023-05-17T00:55:53;20.77;;;11.55;;
53036;SDS011;38924;52.134;4.666;2023-05-17T00:58:20;21.85;;;10.27;;
53036;SDS011;38924;52.134;4.666;2023-05-17T01:00:46;24.52;;;9.63;;
53036;SDS011;38924;52.134;4.666;2023-05-17T01:03:11;21.90;;;10.05;;
53036;SDS011;38924;52.134;4.666;2023-05-17T01:05:37;24.30;;;11.38;;
53036;SDS011;38924;52.134;4.666;2023-05-17T01:08:03;19.58;;;9.27;;
53036;SDS011;38924;52.134;4.666;2023-05-17T01:10:34;29.10;;;10.07;;
53036;SDS011;38924;52.134;4.666;2023-05-17T01:13:05;19.55;;;10.13;;
53036;SDS011;38924;52.134;4.666;2023-05-17T01:15:32;24.02;;;9.68;;
53036;SDS011;38924;52.134;4.666;2023-05-17T01:20:30;25.90;;;10.75;;
53036;SDS011;38924;52.134;4.666;2023-05-17T01:25:35;20.40;;;10.07;;
53036;SDS011;38924;52.134;4.666;2023-05-17T01:28:05;15.20;;;9.90;;
53036;SDS011;38924;52.134;4.666;2023-05-17T01:30:31;23.67;;;11.13;;
53036;SDS011;38924;52.134;4.666;2023-05-17T01:32:57;26.40;;;10.63;;
53036;SDS011;38924;52.134;4.666;2023-05-17T01:35:23;26.83;;;10.75;;
53036;SDS011;38924;52.134;4.666;2023-05-17T01:37:52;23.63;;;9.75;;
53036;SDS011;38924;52.134;4.666;2023-05-17T01:40:18;32.38;;;14.10;;
53036;SDS011;38924;52.134;4.666;2023-05-17T01:42:45;24.85;;;10.70;;
53036;SDS011;38924;52.134;4.666;2023-05-17T01:45:34;24.02;;;9.73;;
53036;SDS011;38924;52.134;4.666;2023-05-17T01:50:28;25.33;;;10.02;;
53036;SDS011;38924;52.134;4.666;2023-05-17T01:55:52;26.13;;;9.70;;
53036;SDS011;38924;52.134;4.666;2023-05-17T01:58:24;22.35;;;10.00;;
53036;SDS011;38924;52.134;4.666;2023-05-17T02:00:55;21.58;;;9.65;;
53036;SDS011;38924;52.134;4.666;2023-05-17T02:03:21;19.88;;;9.68;;
53036;SDS011;38924;52.134;4.666;2023-05-17T02:05:51;24.60;;;10.68;;
53036;SDS011;38924;52.134;4.666;2023-05-17T02:08:17;25.23;;;9.90;;
53036;SDS011;38924;52.134;4.666;2023-05-17T02:10:42;33.60;;;9.48;;
53036;SDS011;38924;52.134;4.666;2023-05-17T02:13:08;18.92;;;9.15;;
53036;SDS011;38924;52.134;4.666;2023-05-17T02:15:34;29.58;;;8.00;;
53036;SDS011;38924;52.134;4.666;2023-05-17T02:17:59;16.85;;;9.18;;
53036;SDS011;38924;52.134;4.666;2023-05-17T02:20:25;21.20;;;9.93;;
53036;SDS011;38924;52.134;4.666;2023-05-17T02:22:51;18.10;;;10.18;;
53036;SDS011;38924;52.134;4.666;2023-05-17T02:25:17;23.13;;;10.20;;
53036;SDS011;38924;52.134;4.666;2023-05-17T02:27:43;21.80;;;9.57;;
53036;SDS011;38924;52.134;4.666;2023-05-17T02:30:09;25.00;;;10.73;;
53036;SDS011;38924;52.134;4.666;2023-05-17T02:32:35;27.38;;;10.90;;
53036;SDS011;38924;52.134;4.666;2023-05-17T02:35:01;20.35;;;10.13;;
53036;SDS011;38924;52.134;4.666;2023-05-17T02:37:26;22.90;;;10.95;;
53036;SDS011;38924;52.134;4.666;2023-05-17T02:39:52;28.45;;;10.45;;
53036;SDS011;38924;52.134;4.666;2023-05-17T02:42:17;28.40;;;11.52;;
53036;SDS011;38924;52.134;4.666;2023-05-17T02:44:43;24.33;;;10.88;;
53036;SDS011;38924;52.134;4.666;2023-05-17T02:47:09;27.02;;;11.93;;
53036;SDS011;38924;52.134;4.666;2023-05-17T02:49:35;28.10;;;12.50;;
53036;SDS011;38924;52.134;4.666;2023-05-17T02:52:02;29.77;;;11.93;;
53036;SDS011;38924;52.134;4.666;2023-05-17T02:54:27;28.73;;;12.15;;
53036;SDS011;38924;52.134;4.666;2023-05-17T02:56:53;21.30;;;10.57;;
53036;SDS011;38924;52.134;4.666;2023-05-17T02:59:19;22.10;;;10.30;;
53036;SDS011;38924;52.134;4.666;2023-05-17T03:01:44;28.98;;;10.05;;
53036;SDS011;38924;52.134;4.666;2023-05-17T03:04:10;22.67;;;8.70;;
53036;SDS011;38924;52.134;4.666;2023-05-17T03:06:37;22.00;;;11.07;;
53036;SDS011;38924;52.134;4.666;2023-05-17T03:09:03;33.53;;;9.30;;
53036;SDS011;38924;52.134;4.666;2023-05-17T03:11:29;24.65;;;9.73;;
53036;SDS011;38924;52.134;4.666;2023-05-17T03:13:56;20.95;;;8.50;;
53036;SDS011;38924;52.134;4.666;2023-05-17T03:16:25;22.13;;;9.98;;
53036;SDS011;38924;52.134;4.666;2023-05-17T03:18:51;31.95;;;9.85;;
53036;SDS011;38924;52.134;4.666;2023-05-17T03:21:17;20.85;;;9.75;;
53036;SDS011;38924;52.134;4.666;2023-05-17T03:23:43;25.70;;;9.50;;
53036;SDS011;38924;52.134;4.666;2023-05-17T03:26:09;20.92;;;10.10;;
53036;SDS011;38924;52.134;4.666;2023-05-17T03:28:41;25.13;;;12.38;;
53036;SDS011;38924;52.134;4.666;2023-05-17T03:31:07;18.30;;;11.32;;
53036;SDS011;38924;52.134;4.666;2023-05-17T03:33:33;20.35;;;11.50;;
53036;SDS011;38924;52.134;4.666;2023-05-17T03:36:00;24.35;;;9.43;;
53036;SDS011;38924;52.134;4.666;2023-05-17T03:38:25;24.92;;;9.60;;
53036;SDS011;38924;52.134;4.666;2023-05-17T03:40:51;26.60;;;10.65;;
53036;SDS011;38924;52.134;4.666;2023-05-17T03:43:17;28.55;;;12.07;;
53036;SDS011;38924;52.134;4.666;2023-05-17T03:45:43;22.52;;;10.20;;
53036;SDS011;38924;52.134;4.666;2023-05-17T03:48:09;32.03;;;11.07;;
53036;SDS011;38924;52.134;4.666;2023-05-17T03:50:34;26.38;;;10.93;;
53036;SDS011;38924;52.134;4.666;2023-05-17T03:53:00;18.67;;;8.77;;
53036;SDS011;38924;52.134;4.666;2023-05-17T03:55:26;15.77;;;8.80;;
53036;SDS011;38924;52.134;4.666;2023-05-17T03:57:53;24.70;;;8.73;;
53036;SDS011;38924;52.134;4.666;2023-05-17T04:00:18;28.23;;;8.32;;
53036;SDS011;38924;52.134;4.666;2023-05-17T04:02:54;30.55;;;9.68;;
53036;SDS011;38924;52.134;4.666;2023-05-17T04:05:21;23.73;;;9.25;;
53036;SDS011;38924;52.134;4.666;2023-05-17T04:07:47;23.50;;;9.23;;
53036;SDS011;38924;52.134;4.666;2023-05-17T04:10:13;24.90;;;8.30;;
53036;SDS011;38924;52.134;4.666;2023-05-17T04:12:39;23.55;;;8.90;;
53036;SDS011;38924;52.134;4.666;2023-05-17T04:15:04;27.75;;;9.38;;
53036;SDS011;38924;52.134;4.666;2023-05-17T04:17:30;17.77;;;8.65;;
53036;SDS011;38924;52.134;4.666;2023-05-17T04:19:56;21.00;;;9.38;;
53036;SDS011;38924;52.134;4.666;2023-05-17T04:22:22;18.15;;;8.68;;
53036;SDS011;38924;52.134;4.666;2023-05-17T04:24:48;17.67;;;8.82;;
53036;SDS011;38924;52.134;4.666;2023-05-17T04:27:14;18.73;;;8.85;;
53036;SDS011;38924;52.134;4.666;2023-05-17T04:29:43;21.85;;;7.80;;
53036;SDS011;38924;52.134;4.666;2023-05-17T04:32:09;24.58;;;8.45;;
53036;SDS011;38924;52.134;4.666;2023-05-17T04:34:35;14.52;;;8.48;;
53036;SDS011;38924;52.134;4.666;2023-05-17T04:37:02;20.67;;;8.95;;
53036;SDS011;38924;52.134;4.666;2023-05-17T04:39:28;28.30;;;8.75;;
53036;SDS011;38924;52.134;4.666;2023-05-17T04:41:54;22.02;;;9.55;;
53036;SDS011;38924;52.134;4.666;2023-05-17T04:44:20;23.48;;;9.30;;
53036;SDS011;38924;52.134;4.666;2023-05-17T04:46:46;24.33;;;10.10;;
53036;SDS011;38924;52.134;4.666;2023-05-17T04:49:12;27.90;;;10.88;;
53036;SDS011;38924;52.134;4.666;2023-05-17T04:51:40;23.33;;;10.50;;
53036;SDS011;38924;52.134;4.666;2023-05-17T04:54:09;29.60;;;8.90;;
53036;SDS011;38924;52.134;4.666;2023-05-17T04:56:35;26.13;;;9.50;;
53036;SDS011;38924;52.134;4.666;2023-05-17T04:59:03;13.40;;;7.75;;
53036;SDS011;38924;52.134;4.666;2023-05-17T05:01:28;23.10;;;9.85;;
53036;SDS011;38924;52.134;4.666;2023-05-17T05:03:56;25.08;;;9.00;;
53036;SDS011;38924;52.134;4.666;2023-05-17T05:06:22;30.10;;;10.10;;
53036;SDS011;38924;52.134;4.666;2023-05-17T05:08:48;26.85;;;10.80;;
53036;SDS011;38924;52.134;4.666;2023-05-17T05:11:14;35.40;;;10.48;;
53036;SDS011;38924;52.134;4.666;2023-05-17T05:13:39;23.75;;;10.15;;
53036;SDS011;38924;52.134;4.666;2023-05-17T05:16:06;20.40;;;9.88;;
53036;SDS011;38924;52.134;4.666;2023-05-17T05:18:33;21.65;;;8.65;;
53036;SDS011;38924;52.134;4.666;2023-05-17T05:20:59;26.13;;;9.57;;
53036;SDS011;38924;52.134;4.666;2023-05-17T05:23:25;27.85;;;12.15;;
53036;SDS011;38924;52.134;4.666;2023-05-17T05:25:51;31.45;;;11.38;;
53036;SDS011;38924;52.134;4.666;2023-05-17T05:28:17;20.15;;;10.65;;
53036;SDS011;38924;52.134;4.666;2023-05-17T05:30:43;24.40;;;10.57;;
53036;SDS011;38924;52.134;4.666;2023-05-17T05:33:12;32.17;;;11.07;;
53036;SDS011;38924;52.134;4.666;2023-05-17T05:35:38;22.08;;;10.27;;
53036;SDS011;38924;52.134;4.666;2023-05-17T05:38:06;31.80;;;10.02;;
53036;SDS011;38924;52.134;4.666;2023-05-17T05:40:32;25.08;;;9.25;;
53036;SDS011;38924;52.134;4.666;2023-05-17T05:42:58;22.10;;;10.40;;
53036;SDS011;38924;52.134;4.666;2023-05-17T05:45:26;31.00;;;14.07;;
53036;SDS011;38924;52.134;4.666;2023-05-17T05:48:01;22.15;;;10.82;;
53036;SDS011;38924;52.134;4.666;2023-05-17T05:50:28;19.48;;;9.23;;
53036;SDS011;38924;52.134;4.666;2023-05-17T05:52:58;19.25;;;9.15;;
53036;SDS011;38924;52.134;4.666;2023-05-17T05:55:26;15.60;;;8.93;;
53036;SDS011;38924;52.134;4.666;2023-05-17T05:57:51;22.85;;;8.48;;
53036;SDS011;38924;52.134;4.666;2023-05-17T06:00:20;21.75;;;8.00;;
53036;SDS011;38924;52.134;4.666;2023-05-17T06:02:45;16.73;;;6.57;;
53036;SDS011;38924;52.134;4.666;2023-05-17T06:05:11;20.25;;;5.78;;
53036;SDS011;38924;52.134;4.666;2023-05-17T06:07:37;15.25;;;5.53;;
53036;SDS011;38924;52.134;4.666;2023-05-17T06:10:02;14.32;;;4.88;;
53036;SDS011;38924;52.134;4.666;2023-05-17T06:12:28;13.57;;;6.13;;
53036;SDS011;38924;52.134;4.666;2023-05-17T06:14:54;15.65;;;5.88;;
53036;SDS011;38924;52.134;4.666;2023-05-17T06:17:20;30.98;;;6.65;;
53036;SDS011;38924;52.134;4.666;2023-05-17T06:19:46;14.10;;;6.13;;
53036;SDS011;38924;52.134;4.666;2023-05-17T06:22:13;20.27;;;7.00;;
53036;SDS011;38924;52.134;4.666;2023-05-17T06:24:39;17.30;;;6.30;;
53036;SDS011;38924;52.134;4.666;2023-05-17T06:27:05;17.98;;;6.90;;
53036;SDS011;38924;52.134;4.666;2023-05-17T06:29:31;13.98;;;5.90;;
53036;SDS011;38924;52.134;4.666;2023-05-17T06:31:57;16.33;;;6.00;;
53036;SDS011;38924;52.134;4.666;2023-05-17T06:34:24;24.35;;;6.78;;
53036;SDS011;38924;52.134;4.666;2023-05-17T06:36:50;15.38;;;5.93;;
53036;SDS011;38924;52.134;4.666;2023-05-17T06:39:18;8.45;;;5.32;;
53036;SDS011;38924;52.134;4.666;2023-05-17T06:41:44;17.52;;;6.47;;
53036;SDS011;38924;52.134;4.666;2023-05-17T06:44:12;22.30;;;5.40;;
53036;SDS011;38924;52.134;4.666;2023-05-17T06:46:38;15.63;;;5.18;;
53036;SDS011;38924;52.134;4.666;2023-05-17T06:49:03;10.40;;;5.63;;
53036;SDS011;38924;52.134;4.666;2023-05-17T06:51:29;12.82;;;6.28;;
53036;SDS011;38924;52.134;4.666;2023-05-17T06:53:55;15.77;;;5.22;;
53036;SDS011;38924;52.134;4.666;2023-05-17T06:56:21;12.82;;;5.35;;
53036;SDS011;38924;52.134;4.666;2023-05-17T06:58:47;13.75;;;5.22;;
53036;SDS011;38924;52.134;4.666;2023-05-17T07:01:12;14.90;;;5.70;;
53036;SDS011;38924;52.134;4.666;2023-05-17T07:03:41;11.10;;;5.75;;
53036;SDS011;38924;52.134;4.666;2023-05-17T07:06:07;12.95;;;6.80;;
53036;SDS011;38924;52.134;4.666;2023-05-17T07:08:33;10.75;;;5.55;;
53036;SDS011;38924;52.134;4.666;2023-05-17T07:10:58;14.48;;;5.60;;
53036;SDS011;38924;52.134;4.666;2023-05-17T07:13:25;9.75;;;5.47;;
53036;SDS011;38924;52.134;4.666;2023-05-17T07:15:50;17.13;;;7.43;;
53036;SDS011;38924;52.134;4.666;2023-05-17T07:18:16;12.45;;;6.90;;
53036;SDS011;38924;52.134;4.666;2023-05-17T07:20:42;12.40;;;5.90;;
53036;SDS011;38924;52.134;4.666;2023-05-17T07:23:07;11.18;;;7.07;;
53036;SDS011;38924;52.134;4.666;2023-05-17T07:25:33;10.52;;;4.55;;
53036;SDS011;38924;52.134;4.666;2023-05-17T07:28:03;10.00;;;6.65;;
53036;SDS011;38924;52.134;4.666;2023-05-17T07:30:29;11.82;;;6.68;;
53036;SDS011;38924;52.134;4.666;2023-05-17T07:32:54;11.38;;;6.57;;
53036;SDS011;38924;52.134;4.666;2023-05-17T07:35:20;12.35;;;7.15;;
53036;SDS011;38924;52.134;4.666;2023-05-17T07:37:46;10.63;;;5.22;;
53036;SDS011;38924;52.134;4.666;2023-05-17T07:40:11;12.32;;;5.40;;
53036;SDS011;38924;52.134;4.666;2023-05-17T07:42:37;10.93;;;6.63;;
53036;SDS011;38924;52.134;4.666;2023-05-17T07:45:03;15.32;;;7.30;;
53036;SDS011;38924;52.134;4.666;2023-05-17T07:47:32;11.63;;;6.80;;
53036;SDS011;38924;52.134;4.666;2023-05-17T07:49:57;14.25;;;6.10;;
53036;SDS011;38924;52.134;4.666;2023-05-17T07:52:23;10.65;;;7.28;;
53036;SDS011;38924;52.134;4.666;2023-05-17T07:54:48;7.50;;;6.70;;
53036;SDS011;38924;52.134;4.666;2023-05-17T07:57:17;15.70;;;6.60;;
53036;SDS011;38924;52.134;4.666;2023-05-17T07:59:43;15.32;;;6.93;;
53036;SDS011;38924;52.134;4.666;2023-05-17T08:02:08;9.45;;;6.63;;
53036;SDS011;38924;52.134;4.666;2023-05-17T08:04:37;12.32;;;5.80;;
53036;SDS011;38924;52.134;4.666;2023-05-17T08:07:02;14.98;;;7.88;;
53036;SDS011;38924;52.134;4.666;2023-05-17T08:09:28;15.52;;;5.30;;
53036;SDS011;38924;52.134;4.666;2023-05-17T08:11:54;12.38;;;4.38;;
53036;SDS011;38924;52.134;4.666;2023-05-17T08:14:21;17.00;;;5.05;;
53036;SDS011;38924;52.134;4.666;2023-05-17T08:16:47;13.35;;;6.43;;
53036;SDS011;38924;52.134;4.666;2023-05-17T08:19:13;6.65;;;3.47;;
53036;SDS011;38924;52.134;4.666;2023-05-17T08:21:40;9.63;;;4.25;;
53036;SDS011;38924;52.134;4.666;2023-05-17T08:24:06;9.75;;;4.88;;
53036;SDS011;38924;52.134;4.666;2023-05-17T08:26:32;34.30;;;7.20;;
53036;SDS011;38924;52.134;4.666;2023-05-17T08:28:57;10.02;;;3.83;;
53036;SDS011;38924;52.134;4.666;2023-05-17T08:31:23;11.68;;;4.30;;
53036;SDS011;38924;52.134;4.666;2023-05-17T08:33:49;9.20;;;3.53;;
53036;SDS011;38924;52.134;4.666;2023-05-17T08:36:14;8.55;;;3.45;;
53036;SDS011;38924;52.134;4.666;2023-05-17T08:38:40;16.23;;;7.85;;
53036;SDS011;38924;52.134;4.666;2023-05-17T08:41:07;26.80;;;16.15;;
53036;SDS011;38924;52.134;4.666;2023-05-17T08:43:33;9.32;;;5.57;;
53036;SDS011;38924;52.134;4.666;2023-05-17T08:45:58;13.50;;;8.65;;
53036;SDS011;38924;52.134;4.666;2023-05-17T08:48:25;14.68;;;7.60;;
53036;SDS011;38924;52.134;4.666;2023-05-17T08:50:51;17.58;;;8.05;;
53036;SDS011;38924;52.134;4.666;2023-05-17T08:53:18;12.25;;;7.32;;
53036;SDS011;38924;52.134;4.666;2023-05-17T08:55:45;17.08;;;10.50;;
53036;SDS011;38924;52.134;4.666;2023-05-17T08:58:20;14.98;;;7.82;;
53036;SDS011;38924;52.134;4.666;2023-05-17T09:00:47;15.60;;;9.45;;
53036;SDS011;38924;52.134;4.666;2023-05-17T09:03:14;13.15;;;9.05;;
53036;SDS011;38924;52.134;4.666;2023-05-17T09:05:44;17.02;;;8.85;;
53036;SDS011;38924;52.134;4.666;2023-05-17T09:08:10;12.48;;;9.75;;
53036;SDS011;38924;52.134;4.666;2023-05-17T09:10:41;12.63;;;9.20;;
53036;SDS011;38924;52.134;4.666;2023-05-17T09:13:09;12.45;;;9.75;;
53036;SDS011;38924;52.134;4.666;2023-05-17T09:15:35;14.98;;;9.55;;
53036;SDS011;38924;52.134;4.666;2023-05-17T09:18:02;12.35;;;9.05;;
53036;SDS011;38924;52.134;4.666;2023-05-17T09:20:28;16.00;;;9.52;;
53036;SDS011;38924;52.134;4.666;2023-05-17T09:23:04;17.63;;;10.00;;
53036;SDS011;38924;52.134;4.666;2023-05-17T09:25:30;12.25;;;8.45;;
53036;SDS011;38924;52.134;4.666;2023-05-17T09:28:02;13.55;;;8.32;;
53036;SDS011;38924;52.134;4.666;2023-05-17T09:30:28;15.00;;;9.48;;
53036;SDS011;38924;52.134;4.666;2023-05-17T09:32:54;16.35;;;8.68;;
53036;SDS011;38924;52.134;4.666;2023-05-17T09:35:29;15.38;;;9.32;;
53036;SDS011;38924;52.134;4.666;2023-05-17T09:38:08;8.50;;;7.68;;
53036;SDS011;38924;52.134;4.666;2023-05-17T09:40:37;11.27;;;7.10;;
53036;SDS011;38924;52.134;4.666;2023-05-17T09:43:03;21.15;;;8.60;;
53036;SDS011;38924;52.134;4.666;2023-05-17T09:45:30;12.07;;;9.38;;
53036;SDS011;38924;52.134;4.666;2023-05-17T09:47:56;9.52;;;6.32;;
53036;SDS011;38924;52.134;4.666;2023-05-17T09:50:21;12.02;;;8.13;;
53036;SDS011;38924;52.134;4.666;2023-05-17T09:52:47;12.50;;;7.53;;
53036;SDS011;38924;52.134;4.666;2023-05-17T09:55:13;9.13;;;7.57;;
53036;SDS011;38924;52.134;4.666;2023-05-17T09:57:40;13.45;;;8.60;;
53036;SDS011;38924;52.134;4.666;2023-05-17T10:00:06;11.35;;;10.23;;
53036;SDS011;38924;52.134;4.666;2023-05-17T10:02:39;12.15;;;10.35;;
53036;SDS011;38924;52.134;4.666;2023-05-17T10:05:09;11.60;;;8.70;;
53036;SDS011;38924;52.134;4.666;2023-05-17T10:07:36;10.25;;;9.10;;
53036;SDS011;38924;52.134;4.666;2023-05-17T10:10:03;16.00;;;11.38;;
53036;SDS011;38924;52.134;4.666;2023-05-17T10:12:30;12.52;;;10.70;;
53036;SDS011;38924;52.134;4.666;2023-05-17T10:14:58;14.93;;;8.75;;
53036;SDS011;38924;52.134;4.666;2023-05-17T10:17:25;12.60;;;10.13;;
53036;SDS011;38924;52.134;4.666;2023-05-17T10:19:51;12.82;;;8.45;;
53036;SDS011;38924;52.134;4.666;2023-05-17T10:22:17;10.82;;;9.63;;
53036;SDS011;38924;52.134;4.666;2023-05-17T10:24:45;16.60;;;9.68;;
53036;SDS011;38924;52.134;4.666;2023-05-17T10:27:10;10.13;;;8.57;;
53036;SDS011;38924;52.134;4.666;2023-05-17T10:29:37;16.75;;;10.02;;
53036;SDS011;38924;52.134;4.666;2023-05-17T10:32:04;18.60;;;10.98;;
53036;SDS011;38924;52.134;4.666;2023-05-17T10:34:36;10.98;;;9.88;;
53036;SDS011;38924;52.134;4.666;2023-05-17T10:37:02;12.52;;;9.38;;
53036;SDS011;38924;52.134;4.666;2023-05-17T10:39:28;9.05;;;8.10;;
53036;SDS011;38924;52.134;4.666;2023-05-17T10:41:55;13.18;;;9.82;;
53036;SDS011;38924;52.134;4.666;2023-05-17T10:44:21;23.67;;;15.27;;
53036;SDS011;38924;52.134;4.666;2023-05-17T10:46:53;17.95;;;9.00;;
53036;SDS011;38924;52.134;4.666;2023-05-17T10:49:19;11.60;;;7.82;;
53036;SDS011;38924;52.134;4.666;2023-05-17T10:51:45;11.13;;;8.27;;
53036;SDS011;38924;52.134;4.666;2023-05-17T10:54:11;15.43;;;10.95;;
53036;SDS011;38924;52.134;4.666;2023-05-17T10:56:41;11.80;;;8.63;;
53036;SDS011;38924;52.134;4.666;2023-05-17T10:59:13;13.18;;;10.63;;
53036;SDS011;38924;52.134;4.666;2023-05-17T11:04:28;13.75;;;8.55;;
53036;SDS011;38924;52.134;4.666;2023-05-17T11:09:41;14.27;;;9.95;;
53036;SDS011;38924;52.134;4.666;2023-05-17T11:12:10;19.30;;;9.50;;
53036;SDS011;38924;52.134;4.666;2023-05-17T11:14:50;20.67;;;9.07;;
53036;SDS011;38924;52.134;4.666;2023-05-17T11:20:04;17.45;;;10.00;;
53036;SDS011;38924;52.134;4.666;2023-05-17T11:22:38;14.73;;;7.68;;
53036;SDS011;38924;52.134;4.666;2023-05-17T11:25:10;15.60;;;9.10;;
53036;SDS011;38924;52.134;4.666;2023-05-17T11:27:37;12.02;;;8.05;;
53036;SDS011;38924;52.134;4.666;2023-05-17T11:32:45;16.73;;;9.05;;
53036;SDS011;38924;52.134;4.666;2023-05-17T11:35:11;20.00;;;9.75;;
53036;SDS011;38924;52.134;4.666;2023-05-17T11:37:37;15.35;;;9.85;;
53036;SDS011;38924;52.134;4.666;2023-05-17T11:40:03;14.80;;;9.57;;
53036;SDS011;38924;52.134;4.666;2023-05-17T11:42:30;12.27;;;9.98;;
53036;SDS011;38924;52.134;4.666;2023-05-17T11:44:56;12.13;;;9.13;;
53036;SDS011;38924;52.134;4.666;2023-05-17T11:47:25;14.45;;;9.90;;
53036;SDS011;38924;52.134;4.666;2023-05-17T11:49:51;13.93;;;8.90;;
53036;SDS011;38924;52.134;4.666;2023-05-17T11:52:18;11.27;;;8.02;;
53036;SDS011;38924;52.134;4.666;2023-05-17T11:54:44;14.50;;;9.68;;
53036;SDS011;38924;52.134;4.666;2023-05-17T11:57:10;17.65;;;9.70;;
53036;SDS011;38924;52.134;4.666;2023-05-17T11:59:37;19.40;;;9.00;;
53036;SDS011;38924;52.134;4.666;2023-05-17T12:02:04;11.68;;;8.23;;
53036;SDS011;38924;52.134;4.666;2023-05-17T12:04:36;13.38;;;9.38;;
53036;SDS011;38924;52.134;4.666;2023-05-17T12:07:02;11.25;;;8.25;;
53036;SDS011;38924;52.134;4.666;2023-05-17T12:09:28;13.55;;;11.15;;
53036;SDS011;38924;52.134;4.666;2023-05-17T12:11:54;12.43;;;9.75;;
53036;SDS011;38924;52.134;4.666;2023-05-17T12:14:20;11.20;;;9.93;;
53036;SDS011;38924;52.134;4.666;2023-05-17T12:16:47;12.88;;;8.93;;
53036;SDS011;38924;52.134;4.666;2023-05-17T12:19:17;14.07;;;8.48;;
53036;SDS011;38924;52.134;4.666;2023-05-17T12:21:44;10.90;;;9.75;;
53036;SDS011;38924;52.134;4.666;2023-05-17T12:24:10;13.13;;;8.90;;
53036;SDS011;38924;52.134;4.666;2023-05-17T12:26:41;12.85;;;8.43;;
53036;SDS011;38924;52.134;4.666;2023-05-17T12:29:06;13.07;;;9.25;;
53036;SDS011;38924;52.134;4.666;2023-05-17T12:31:33;14.90;;;10.68;;
53036;SDS011;38924;52.134;4.666;2023-05-17T12:34:00;12.82;;;9.88;;
53036;SDS011;38924;52.134;4.666;2023-05-17T12:36:27;19.25;;;9.77;;
53036;SDS011;38924;52.134;4.666;2023-05-17T12:38:53;19.33;;;8.55;;
53036;SDS011;38924;52.134;4.666;2023-05-17T12:41:20;14.20;;;7.90;;
53036;SDS011;38924;52.134;4.666;2023-05-17T12:43:47;18.30;;;9.60;;
53036;SDS011;38924;52.134;4.666;2023-05-17T12:46:15;12.80;;;9.48;;
53036;SDS011;38924;52.134;4.666;2023-05-17T12:48:43;14.68;;;8.75;;
53036;SDS011;38924;52.134;4.666;2023-05-17T12:51:12;15.07;;;9.15;;
53036;SDS011;38924;52.134;4.666;2023-05-17T12:53:39;11.52;;;9.52;;
53036;SDS011;38924;52.134;4.666;2023-05-17T12:56:05;11.43;;;8.52;;
53036;SDS011;38924;52.134;4.666;2023-05-17T12:58:31;17.08;;;9.90;;
53036;SDS011;38924;52.134;4.666;2023-05-17T13:00:58;13.68;;;8.77;;
53036;SDS011;38924;52.134;4.666;2023-05-17T13:03:24;14.82;;;10.35;;
53036;SDS011;38924;52.134;4.666;2023-05-17T13:06:11;18.27;;;7.28;;
53036;SDS011;38924;52.134;4.666;2023-05-17T13:08:36;12.48;;;8.02;;
53036;SDS011;38924;52.134;4.666;2023-05-17T13:11:05;18.55;;;10.25;;
53036;SDS011;38924;52.134;4.666;2023-05-17T13:13:31;13.73;;;7.43;;
53036;SDS011;38924;52.134;4.666;2023-05-17T13:15:57;13.15;;;8.95;;
53036;SDS011;38924;52.134;4.666;2023-05-17T13:18:23;19.48;;;8.50;;
53036;SDS011;38924;52.134;4.666;2023-05-17T13:20:49;11.05;;;7.35;;
53036;SDS011;38924;52.134;4.666;2023-05-17T13:23:18;14.23;;;9.85;;
53036;SDS011;38924;52.134;4.666;2023-05-17T13:25:44;11.90;;;8.73;;
53036;SDS011;38924;52.134;4.666;2023-05-17T13:28:10;15.50;;;11.70;;
53036;SDS011;38924;52.134;4.666;2023-05-17T13:30:35;12.50;;;8.27;;
53036;SDS011;38924;52.134;4.666;2023-05-17T13:33:01;17.02;;;8.98;;
53036;SDS011;38924;52.134;4.666;2023-05-17T13:35:27;14.88;;;8.60;;
53036;SDS011;38924;52.134;4.666;2023-05-17T13:37:52;14.07;;;7.88;;
53036;SDS011;38924;52.134;4.666;2023-05-17T13:40:18;16.13;;;7.78;;
53036;SDS011;38924;52.134;4.666;2023-05-17T13:42:44;14.35;;;8.02;;
53036;SDS011;38924;52.134;4.666;2023-05-17T13:45:09;23.25;;;10.32;;
53036;SDS011;38924;52.134;4.666;2023-05-17T13:47:36;15.07;;;7.38;;
53036;SDS011;38924;52.134;4.666;2023-05-17T13:50:02;18.23;;;8.98;;
53036;SDS011;38924;52.134;4.666;2023-05-17T13:52:28;14.32;;;8.55;;
53036;SDS011;38924;52.134;4.666;2023-05-17T13:54:54;11.85;;;5.82;;
53036;SDS011;38924;52.134;4.666;2023-05-17T13:57:20;16.58;;;8.40;;
53036;SDS011;38924;52.134;4.666;2023-05-17T13:59:46;16.90;;;6.25;;
53036;SDS011;38924;52.134;4.666;2023-05-17T14:02:11;16.52;;;6.95;;
53036;SDS011;38924;52.134;4.666;2023-05-17T14:04:37;22.52;;;6.30;;
53036;SDS011;38924;52.134;4.666;2023-05-17T14:07:03;11.57;;;6.07;;
53036;SDS011;38924;52.134;4.666;2023-05-17T14:09:29;15.90;;;6.30;;
53036;SDS011;38924;52.134;4.666;2023-05-17T14:11:58;14.70;;;5.85;;
53036;SDS011;38924;52.134;4.666;2023-05-17T14:14:23;17.75;;;7.75;;
53036;SDS011;38924;52.134;4.666;2023-05-17T14:16:52;9.82;;;7.22;;
53036;SDS011;38924;52.134;4.666;2023-05-17T14:19:18;16.90;;;6.15;;
53036;SDS011;38924;52.134;4.666;2023-05-17T14:21:44;10.60;;;5.82;;
53036;SDS011;38924;52.134;4.666;2023-05-17T14:24:10;19.48;;;5.22;;
53036;SDS011;38924;52.134;4.666;2023-05-17T14:26:36;14.10;;;6.15;;
53036;SDS011;38924;52.134;4.666;2023-05-17T14:29:01;13.57;;;5.40;;
53036;SDS011;38924;52.134;4.666;2023-05-17T14:31:27;17.15;;;5.20;;
53036;SDS011;38924;52.134;4.666;2023-05-17T14:33:54;11.40;;;4.40;;
53036;SDS011;38924;52.134;4.666;2023-05-17T14:36:20;12.98;;;5.00;;
53036;SDS011;38924;52.134;4.666;2023-05-17T14:38:45;14.40;;;5.45;;
53036;SDS011;38924;52.134;4.666;2023-05-17T14:41:11;13.98;;;4.70;;
53036;SDS011;38924;52.134;4.666;2023-05-17T14:43:37;19.98;;;5.75;;
53036;SDS011;38924;52.134;4.666;2023-05-17T14:46:03;14.20;;;5.68;;
53036;SDS011;38924;52.134;4.666;2023-05-17T14:48:28;12.70;;;4.80;;
53036;SDS011;38924;52.134;4.666;2023-05-17T14:50:55;14.70;;;4.75;;